createdAt,value
2023-01-22T00:00:42.138Z,94906.38
2023-01-22T00:03:08.991Z,94919.50
2023-01-22T00:05:36.749Z,94921.16
2023-01-22T00:08:03.594Z,94918.34
2023-01-22T00:10:32.488Z,94935.09
2023-01-22T00:12:59.272Z,94933.91
2023-01-22T00:15:27.152Z,94935.56
2023-01-22T00:17:54.467Z,94929.78
2023-01-22T00:20:21.232Z,94920.66
2023-01-22T00:22:47.952Z,94929.72
2023-01-22T00:25:14.834Z,94925.28
2023-01-22T00:27:41.866Z,94932.00
2023-01-22T00:30:09.647Z,94925.28
2023-01-22T00:32:36.399Z,94929.94
2023-01-22T00:35:03.374Z,94923.59
2023-01-22T00:37:30.135Z,94914.38
2023-01-22T00:39:57.081Z,94918.84
2023-01-22T00:42:24.083Z,94915.09
2023-01-22T00:44:50.871Z,94919.84
2023-01-22T00:47:17.607Z,94945.63
2023-01-22T00:49:44.346Z,94943.00
2023-01-22T00:52:11.273Z,94940.41
2023-01-22T00:54:38.198Z,94933.25
2023-01-22T00:57:05.280Z,94939.31
2023-01-22T00:59:32.623Z,94944.97
2023-01-22T01:01:59.586Z,94948.16
2023-01-22T01:04:26.927Z,94954.97
2023-01-22T01:06:55.406Z,94958.09
2023-01-22T01:09:22.346Z,94970.69
2023-01-22T01:11:49.197Z,94958.00
2023-01-22T01:14:17.356Z,94978.47
2023-01-22T01:16:44.284Z,94968.44
2023-01-22T01:19:12.551Z,94961.06
2023-01-22T01:21:39.326Z,94961.09
2023-01-22T01:24:06.203Z,94964.75
2023-01-22T01:26:34.770Z,94958.22
2023-01-22T01:29:04.770Z,94964.22
2023-01-22T01:31:31.793Z,94969.47
2023-01-22T01:33:59.762Z,94982.69
2023-01-22T01:36:47.210Z,95000.28
2023-01-22T01:39:14.592Z,94988.59
2023-01-22T01:41:42.306Z,94995.44
2023-01-22T01:44:17.402Z,94994.06
2023-01-22T01:47:07.910Z,95001.91
2023-01-22T01:49:45.070Z,94995.75
2023-01-22T01:52:13.108Z,94978.94
2023-01-22T01:54:42.873Z,94997.91
2023-01-22T01:57:15.300Z,95003.69
2023-01-22T01:59:43.216Z,95003.66
2023-01-22T02:02:10.543Z,94996.28
2023-01-22T02:04:37.796Z,94993.47
2023-01-22T02:07:05.568Z,94988.38
2023-01-22T02:09:33.816Z,94990.47
2023-01-22T02:12:02.168Z,94976.53
2023-01-22T02:14:39.875Z,94992.78
2023-01-22T02:17:24.831Z,94989.75
2023-01-22T02:19:51.751Z,94988.94
2023-01-22T02:22:31.120Z,94996.84
2023-01-22T02:24:59.562Z,95003.75
2023-01-22T02:27:27.407Z,95013.88
2023-01-22T02:29:54.456Z,95015.47
2023-01-22T02:32:21.960Z,95009.72
2023-01-22T02:34:49.005Z,95004.22
2023-01-22T02:37:15.968Z,95002.09
2023-01-22T02:39:43.052Z,94992.88
2023-01-22T02:42:10.451Z,95001.53
2023-01-22T02:44:38.849Z,95008.63
2023-01-22T02:47:06.154Z,94995.75
2023-01-22T02:49:33.014Z,94999.94
2023-01-22T02:52:01.039Z,95007.06
2023-01-22T02:54:28.722Z,95011.00
2023-01-22T02:56:56.783Z,95011.78
2023-01-22T02:59:23.978Z,95020.50
2023-01-22T03:01:51.875Z,95023.41
2023-01-22T03:04:18.864Z,95023.41
2023-01-22T03:07:05.719Z,95019.19
2023-01-22T03:09:32.554Z,95020.53
2023-01-22T03:11:59.227Z,95020.25
2023-01-22T03:14:49.510Z,95018.69
2023-01-22T03:17:36.114Z,95012.91
2023-01-22T03:20:21.850Z,95013.94
2023-01-22T03:22:48.687Z,95019.97
2023-01-22T03:25:15.534Z,95033.91
2023-01-22T03:28:03.718Z,95033.41
2023-01-22T03:30:30.704Z,95029.16
2023-01-22T03:32:58.097Z,95011.59
2023-01-22T03:35:25.234Z,95005.03
2023-01-22T03:38:12.382Z,95012.09
2023-01-22T03:40:39.875Z,94991.06
2023-01-22T03:43:06.928Z,95003.66
2023-01-22T03:45:35.191Z,95019.47
2023-01-22T03:48:03.941Z,95020.78
2023-01-22T03:50:36.725Z,95021.28
2023-01-22T03:53:04.190Z,95023.91
2023-01-22T03:55:32.380Z,95017.88
2023-01-22T03:57:59.352Z,95023.94
2023-01-22T04:00:26.192Z,95019.19
2023-01-22T04:02:54.110Z,95034.97
2023-01-22T04:05:25.415Z,95031.88
2023-01-22T04:07:52.505Z,95035.41
2023-01-22T04:10:23.887Z,95033.31
2023-01-22T04:12:51.066Z,95041.72
2023-01-22T04:15:21.153Z,95047.00
2023-01-22T04:17:49.670Z,95039.44
2023-01-22T04:20:34.652Z,95045.75
2023-01-22T04:23:29.823Z,95053.91
2023-01-22T04:25:57.904Z,95054.16
2023-01-22T04:28:25.448Z,95054.94
2023-01-22T04:30:55.394Z,95051.53
2023-01-22T04:33:36.208Z,95053.38
2023-01-22T04:36:10.397Z,95048.91
2023-01-22T04:38:37.558Z,95064.13
2023-01-22T04:41:04.395Z,95062.84
2023-01-22T04:43:31.238Z,95076.19
2023-01-22T04:45:58.002Z,95075.44
2023-01-22T04:48:29.483Z,95082.28
2023-01-22T04:50:56.552Z,95088.59
2023-01-22T04:53:26.330Z,95093.84
2023-01-22T04:55:53.125Z,95090.69
2023-01-22T04:58:21.088Z,95099.38
2023-01-22T05:00:48.290Z,95098.56
2023-01-22T05:03:15.239Z,95103.56
2023-01-22T05:05:42.399Z,95109.59
2023-01-22T05:08:09.118Z,95108.00
2023-01-22T05:10:36.946Z,95119.34
2023-01-22T05:13:07.092Z,95120.66
2023-01-22T05:15:35.297Z,95123.81
2023-01-22T05:18:09.509Z,95123.81
2023-01-22T05:20:39.214Z,95125.41
2023-01-22T05:23:07.529Z,95126.97
2023-01-22T05:25:34.257Z,95124.06
2023-01-22T05:28:04.185Z,95137.44
2023-01-22T05:30:43.868Z,95147.97
2023-01-22T05:33:37.225Z,95139.00
2023-01-22T05:36:07.387Z,95150.56
2023-01-22T05:38:35.846Z,95143.72
2023-01-22T05:41:02.759Z,95166.34
2023-01-22T05:43:38.021Z,95173.44
2023-01-22T05:46:08.203Z,95174.72
2023-01-22T05:48:40.953Z,95181.06
2023-01-22T05:51:14.298Z,95186.84
2023-01-22T05:53:41.403Z,95187.84
2023-01-22T05:56:08.640Z,95195.19
2023-01-22T05:58:38.488Z,95198.41
2023-01-22T06:01:06.048Z,95183.06
2023-01-22T06:03:39.831Z,95192.34
2023-01-22T06:06:11.105Z,95202.66
2023-01-22T06:08:38.936Z,95206.34
2023-01-22T06:11:10.069Z,95214.66
2023-01-22T06:13:38.530Z,95211.06
2023-01-22T06:16:14.894Z,95217.34
2023-01-22T06:19:12.468Z,95222.53
2023-01-22T06:21:50.869Z,95221.06
2023-01-22T06:24:19.184Z,95230.22
2023-01-22T06:26:46.904Z,95220.81
2023-01-22T06:29:15.047Z,95233.97
2023-01-22T06:31:43.016Z,95238.75
2023-01-22T06:34:14.631Z,95233.66
2023-01-22T06:36:43.516Z,95246.53
2023-01-22T06:39:10.912Z,95247.47
2023-01-22T06:41:55.252Z,95233.56
2023-01-22T06:44:23.279Z,95241.81
2023-01-22T06:46:54.305Z,95247.31
2023-01-22T06:49:27.084Z,95256.03
2023-01-22T06:51:55.784Z,95269.31
2023-01-22T06:54:23.408Z,95267.22
2023-01-22T06:56:50.134Z,95270.28
2023-01-22T06:59:18.224Z,95277.75
2023-01-22T07:01:45.103Z,95281.66
2023-01-22T07:04:12.079Z,95276.94
2023-01-22T07:06:38.786Z,95280.56
2023-01-22T07:09:06.658Z,95279.00
2023-01-22T07:11:33.736Z,95281.66
2023-01-22T07:14:00.635Z,95280.94
2023-01-22T07:16:27.437Z,95276.16
2023-01-22T07:18:54.354Z,95276.00
2023-01-22T07:21:21.093Z,95285.72
2023-01-22T07:23:48.151Z,95287.69
2023-01-22T07:26:15.953Z,95288.44
2023-01-22T07:28:43.994Z,95287.22
2023-01-22T07:31:11.845Z,95287.75
2023-01-22T07:33:38.746Z,95294.16
2023-01-22T07:36:06.212Z,95283.41
2023-01-22T07:38:32.995Z,95290.13
2023-01-22T07:41:01.260Z,95291.91
2023-01-22T07:43:32.407Z,95292.91
2023-01-22T07:46:03.816Z,95287.84
2023-01-22T07:48:30.918Z,95306.31
2023-01-22T07:51:05.275Z,95297.47
2023-01-22T07:53:33.579Z,95297.25
2023-01-22T07:56:04.011Z,95298.06
2023-01-22T07:58:30.872Z,95301.72
2023-01-22T08:00:57.725Z,95311.47
2023-01-22T08:03:24.575Z,95304.88
2023-01-22T08:05:51.469Z,95308.84
2023-01-22T08:08:22.439Z,95318.59
2023-01-22T08:10:49.283Z,95312.78
2023-01-22T08:13:16.120Z,95315.97
2023-01-22T08:15:43.849Z,95320.19
2023-01-22T08:18:11.851Z,95320.69
2023-01-22T08:20:38.714Z,95320.16
2023-01-22T08:23:05.820Z,95319.09
2023-01-22T08:25:32.862Z,95321.72
2023-01-22T08:28:02.953Z,95325.91
2023-01-22T08:30:29.615Z,95327.75
2023-01-22T08:32:56.467Z,95329.59
2023-01-22T08:35:24.556Z,95335.38
2023-01-22T08:37:51.290Z,95326.69
2023-01-22T08:40:18.694Z,95323.53
2023-01-22T08:42:54.466Z,95327.16
2023-01-22T08:45:22.317Z,95330.13
2023-01-22T08:47:49.035Z,95332.47
2023-01-22T08:50:16.505Z,95325.88
2023-01-22T08:52:43.455Z,95322.75
2023-01-22T08:55:10.466Z,95330.38
2023-01-22T08:57:37.494Z,95323.22
2023-01-22T09:00:05.777Z,95329.78
2023-01-22T09:02:33.459Z,95326.28
2023-01-22T09:05:00.325Z,95330.19
2023-01-22T09:07:27.038Z,95322.50
2023-01-22T09:09:54.014Z,95324.28
2023-01-22T09:12:20.829Z,95330.44
2023-01-22T09:14:47.670Z,95320.78
2023-01-22T09:17:14.404Z,95324.06
2023-01-22T09:19:41.146Z,95321.13
2023-01-22T09:22:07.990Z,95323.03
2023-01-22T09:24:34.949Z,95322.25
2023-01-22T09:27:01.787Z,95321.53
2023-01-22T09:29:28.708Z,95327.22
2023-01-22T09:31:56.432Z,95322.25
2023-01-22T09:34:23.321Z,95313.91
2023-01-22T09:36:50.243Z,95316.38
2023-01-22T09:39:17.465Z,95320.00
2023-01-22T09:41:49.033Z,95303.16
2023-01-22T09:44:20.343Z,95316.88
2023-01-22T09:47:07.873Z,95316.94
2023-01-22T09:50:00.759Z,95312.97
2023-01-22T09:52:33.722Z,95321.09
2023-01-22T09:55:00.792Z,95319.78
2023-01-22T09:57:32.191Z,95323.81
2023-01-22T09:59:59.798Z,95317.28
2023-01-22T10:02:30.920Z,95319.47
2023-01-22T10:05:16.485Z,95309.84
2023-01-22T10:07:55.631Z,95315.53
2023-01-22T10:10:27.322Z,95313.53
2023-01-22T10:13:01.679Z,95314.31
2023-01-22T10:15:28.595Z,95318.75
2023-01-22T10:17:57.355Z,95319.69
2023-01-22T10:20:26.375Z,95304.88
2023-01-22T10:22:56.030Z,95314.69
2023-01-22T10:25:23.072Z,95316.63
2023-01-22T10:27:59.479Z,95311.03
2023-01-22T10:30:27.871Z,95310.09
2023-01-22T10:33:03.362Z,95310.66
2023-01-22T10:35:32.058Z,95309.38
2023-01-22T10:38:00.607Z,95317.28
2023-01-22T10:40:38.161Z,95312.53
2023-01-22T10:43:10.129Z,95314.41
2023-01-22T10:45:37.521Z,95321.28
2023-01-22T10:48:12.707Z,95310.50
2023-01-22T10:50:40.471Z,95304.16
2023-01-22T10:53:34.454Z,95304.28
2023-01-22T10:56:04.504Z,95309.44
2023-01-22T10:58:34.924Z,95315.09
2023-01-22T11:01:22.004Z,95307.72
2023-01-22T11:03:49.098Z,95307.09
2023-01-22T11:06:20.679Z,95294.28
2023-01-22T11:09:00.432Z,95310.41
2023-01-22T11:11:41.785Z,95302.31
2023-01-22T11:14:20.371Z,95299.75
2023-01-22T11:16:51.314Z,95315.25
2023-01-22T11:19:32.641Z,95306.69
2023-01-22T11:22:14.451Z,95305.31
2023-01-22T11:24:47.380Z,95305.47
2023-01-22T11:27:22.846Z,95304.97
2023-01-22T11:29:55.906Z,95301.59
2023-01-22T11:32:55.325Z,95299.50
2023-01-22T11:35:47.629Z,95297.94
2023-01-22T11:38:33.201Z,95293.41
2023-01-22T11:41:16.932Z,95301.53
2023-01-22T11:44:06.329Z,95303.38
2023-01-22T11:46:44.014Z,95298.94
2023-01-22T11:49:22.367Z,95301.75
2023-01-22T11:51:51.750Z,95295.06
2023-01-22T11:54:25.406Z,95303.13
2023-01-22T11:57:03.012Z,95298.78
2023-01-22T11:59:51.772Z,95290.94
2023-01-22T12:02:30.253Z,95293.78
2023-01-22T12:05:07.429Z,95280.53
2023-01-22T12:08:02.143Z,95298.09
2023-01-22T12:10:58.705Z,95292.72
2023-01-22T12:13:44.297Z,95283.56
2023-01-22T12:16:40.479Z,95273.13
2023-01-22T12:19:10.072Z,95281.47
2023-01-22T12:22:09.381Z,95271.41
2023-01-22T12:25:03.686Z,95279.84
2023-01-22T12:27:39.075Z,95274.19
2023-01-22T12:30:17.016Z,95270.03
2023-01-22T12:32:48.629Z,95265.06
2023-01-22T12:35:21.370Z,95268.22
2023-01-22T12:37:54.882Z,95267.88
2023-01-22T12:41:00.396Z,95274.06
2023-01-22T12:43:35.160Z,95269.75
2023-01-22T12:46:27.168Z,95282.63
2023-01-22T12:49:03.960Z,95284.66
2023-01-22T12:51:46.993Z,95288.91
2023-01-22T12:54:37.504Z,95284.06
2023-01-22T12:57:17.411Z,95291.72
2023-01-22T12:59:46.258Z,95282.91
2023-01-22T13:02:22.122Z,95299.44
2023-01-22T13:04:49.182Z,95291.59
2023-01-22T13:07:27.235Z,95290.72
2023-01-22T13:10:25.179Z,95297.13
2023-01-22T13:12:55.146Z,95294.03
2023-01-22T13:15:26.105Z,95301.03
2023-01-22T13:18:08.065Z,95315.25
2023-01-22T13:20:45.721Z,95315.91
2023-01-22T13:23:13.981Z,95305.72
2023-01-22T13:25:42.833Z,95317.81
2023-01-22T13:28:16.883Z,95317.41
2023-01-22T13:30:54.933Z,95319.28
2023-01-22T13:33:21.939Z,95314.56
2023-01-22T13:35:49.354Z,95300.34
2023-01-22T13:38:27.661Z,95324.72
2023-01-22T13:40:59.893Z,95321.53
2023-01-22T13:43:27.729Z,95331.88
2023-01-22T13:45:58.494Z,95329.38
2023-01-22T13:48:26.719Z,95342.63
2023-01-22T13:51:03.425Z,95335.09
2023-01-22T13:53:43.956Z,95333.94
2023-01-22T13:56:19.186Z,95327.50
2023-01-22T13:58:48.695Z,95336.66
2023-01-22T14:01:31.780Z,95329.31
2023-01-22T14:04:07.233Z,95335.16
2023-01-22T14:06:49.687Z,95352.22
2023-01-22T14:09:52.771Z,95368.50
2023-01-22T14:12:22.596Z,95350.19
2023-01-22T14:14:49.522Z,95348.41
2023-01-22T14:17:25.244Z,95363.38
2023-01-22T14:19:52.342Z,95355.03
2023-01-22T14:22:19.278Z,95355.50
2023-01-22T14:24:46.115Z,95363.25
2023-01-22T14:27:13.256Z,95350.09
2023-01-22T14:29:40.346Z,95365.88
2023-01-22T14:32:07.061Z,95359.72
2023-01-22T14:34:33.806Z,95357.63
2023-01-22T14:37:00.593Z,95358.28
2023-01-22T14:39:27.455Z,95365.34
2023-01-22T14:41:54.208Z,95357.16
2023-01-22T14:44:21.123Z,95370.06
2023-01-22T14:46:48.797Z,95373.06
2023-01-22T14:49:15.613Z,95387.97
2023-01-22T14:51:42.472Z,95382.88
2023-01-22T14:54:09.176Z,95396.50
2023-01-22T14:56:35.862Z,95398.63
2023-01-22T14:59:04.700Z,95386.91
2023-01-22T15:01:31.443Z,95392.63
2023-01-22T15:03:58.226Z,95396.41
2023-01-22T15:06:25.137Z,95395.00
2023-01-22T15:08:52.805Z,95398.59
2023-01-22T15:11:19.549Z,95398.81
2023-01-22T15:13:46.530Z,95401.06
2023-01-22T15:16:13.601Z,95406.13
2023-01-22T15:18:40.878Z,95402.03
2023-01-22T15:21:10.499Z,95413.44
2023-01-22T15:23:37.420Z,95412.06
2023-01-22T15:26:20.431Z,95418.63
2023-01-22T15:28:47.348Z,95420.34
2023-01-22T15:31:14.074Z,95405.69
2023-01-22T15:33:41.009Z,95415.19
2023-01-22T15:36:08.611Z,95412.59
2023-01-22T15:38:35.372Z,95409.75
2023-01-22T15:41:26.641Z,95406.25
2023-01-22T15:43:56.095Z,95427.56
2023-01-22T15:46:25.054Z,95430.44
2023-01-22T15:48:52.756Z,95427.56
2023-01-22T15:51:20.540Z,95426.53
2023-01-22T15:53:52.050Z,95418.88
2023-01-22T15:56:21.041Z,95425.78
2023-01-22T15:58:50.315Z,95425.72
2023-01-22T16:01:18.407Z,95434.56
2023-01-22T16:03:45.800Z,95432.72
2023-01-22T16:06:15.153Z,95434.66
2023-01-22T16:08:43.446Z,95440.75
2023-01-22T16:11:10.691Z,95440.28
2023-01-22T16:13:37.831Z,95431.72
2023-01-22T16:16:08.006Z,95441.19
2023-01-22T16:18:35.794Z,95441.75
2023-01-22T16:21:07.136Z,95439.66
2023-01-22T16:23:37.555Z,95433.84
2023-01-22T16:26:13.242Z,95438.47
2023-01-22T16:28:40.863Z,95442.72
2023-01-22T16:31:09.690Z,95441.38
2023-01-22T16:33:39.197Z,95432.34
2023-01-22T16:36:10.087Z,95435.31
2023-01-22T16:38:37.111Z,95435.25
2023-01-22T16:41:26.287Z,95445.88
2023-01-22T16:43:59.411Z,95456.28
2023-01-22T16:46:32.103Z,95453.59
2023-01-22T16:49:07.790Z,95460.66
2023-01-22T16:51:39.899Z,95456.81
2023-01-22T16:54:07.620Z,95461.31
2023-01-22T16:56:36.575Z,95469.19
2023-01-22T16:59:03.551Z,95473.78
2023-01-22T17:01:30.982Z,95475.88
2023-01-22T17:03:57.741Z,95474.84
2023-01-22T17:06:32.537Z,95477.78
2023-01-22T17:09:00.181Z,95478.50
2023-01-22T17:11:27.135Z,95471.81
2023-01-22T17:13:54.291Z,95479.91
2023-01-22T17:16:21.081Z,95479.25
2023-01-22T17:18:48.088Z,95468.88
2023-01-22T17:21:18.130Z,95481.16
2023-01-22T17:23:45.315Z,95480.69
2023-01-22T17:26:14.571Z,95469.19
2023-01-22T17:28:42.076Z,95476.53
2023-01-22T17:31:11.855Z,95474.13
2023-01-22T17:33:39.262Z,95477.09
2023-01-22T17:36:07.075Z,95480.88
2023-01-22T17:38:38.361Z,95465.09
2023-01-22T17:41:12.343Z,95485.03
2023-01-22T17:43:39.175Z,95494.66
2023-01-22T17:46:12.426Z,95498.03
2023-01-22T17:48:39.746Z,95502.50
2023-01-22T17:51:09.579Z,95499.81
2023-01-22T17:53:41.826Z,95503.97
2023-01-22T17:56:19.112Z,95511.75
2023-01-22T17:58:54.080Z,95511.88
2023-01-22T18:01:23.910Z,95510.66
2023-01-22T18:03:51.333Z,95517.22
2023-01-22T18:06:19.278Z,95518.03
2023-01-22T18:08:46.187Z,95523.56
2023-01-22T18:11:16.580Z,95513.22
2023-01-22T18:13:44.384Z,95517.22
2023-01-22T18:16:14.149Z,95524.03
2023-01-22T18:18:41.690Z,95527.19
2023-01-22T18:21:14.166Z,95528.38
2023-01-22T18:23:41.079Z,95536.25
2023-01-22T18:26:08.708Z,95527.81
2023-01-22T18:28:36.436Z,95526.81
2023-01-22T18:31:10.942Z,95525.06
2023-01-22T18:33:38.612Z,95529.97
2023-01-22T18:36:10.693Z,95530.88
2023-01-22T18:38:37.975Z,95526.78
2023-01-22T18:41:12.184Z,95540.59
2023-01-22T18:43:40.000Z,95535.75
2023-01-22T18:46:10.679Z,95535.19
2023-01-22T18:48:39.572Z,95528.38
2023-01-22T18:51:09.076Z,95537.81
2023-01-22T18:53:36.423Z,95544.28
2023-01-22T18:56:06.346Z,95545.31
2023-01-22T18:58:36.215Z,95550.31
2023-01-22T19:01:26.992Z,95542.59
2023-01-22T19:03:58.277Z,95551.09
2023-01-22T19:06:30.784Z,95549.81
2023-01-22T19:09:03.534Z,95550.66
2023-01-22T19:11:32.318Z,95548.28
2023-01-22T19:14:00.625Z,95551.66
2023-01-22T19:16:28.203Z,95550.66
2023-01-22T19:18:57.135Z,95556.97
2023-01-22T19:21:25.769Z,95556.38
2023-01-22T19:23:57.659Z,95547.38
2023-01-22T19:26:31.205Z,95548.88
2023-01-22T19:29:04.640Z,95541.13
2023-01-22T19:31:32.931Z,95548.72
2023-01-22T19:34:01.174Z,95540.63
2023-01-22T19:36:31.247Z,95553.78
2023-01-22T19:39:00.775Z,95553.22
2023-01-22T19:41:28.453Z,95548.47
2023-01-22T19:43:57.355Z,95544.25
2023-01-22T19:46:26.071Z,95538.06
2023-01-22T19:48:53.617Z,95543.75
2023-01-22T19:51:27.013Z,95546.88
2023-01-22T19:53:54.826Z,95544.50
2023-01-22T19:56:27.191Z,95541.31
2023-01-22T19:58:59.294Z,95544.72
2023-01-22T20:01:26.643Z,95548.84
2023-01-22T20:03:54.901Z,95547.47
2023-01-22T20:06:23.301Z,95541.06
2023-01-22T20:08:50.472Z,95532.09
2023-01-22T20:11:17.978Z,95538.25
2023-01-22T20:13:44.832Z,95523.41
2023-01-22T20:16:22.274Z,95532.03
2023-01-22T20:18:50.571Z,95538.66
2023-01-22T20:21:20.577Z,95528.28
2023-01-22T20:23:50.114Z,95525.16
2023-01-22T20:26:18.819Z,95528.81
2023-01-22T20:28:46.677Z,95538.63
2023-01-22T20:31:17.411Z,95532.88
2023-01-22T20:33:44.197Z,95522.78
2023-01-22T20:36:15.142Z,95529.06
2023-01-22T20:38:43.752Z,95538.88
2023-01-22T20:41:10.659Z,95532.00
2023-01-22T20:43:39.514Z,95525.88
2023-01-22T20:46:16.125Z,95535.06
2023-01-22T20:48:43.591Z,95538.78
2023-01-22T20:51:17.008Z,95538.78
2023-01-22T20:53:48.636Z,95541.94
2023-01-22T20:56:20.961Z,95544.13
2023-01-22T20:58:47.824Z,95529.53
2023-01-22T21:01:19.157Z,95542.97
2023-01-22T21:03:47.953Z,95539.28
2023-01-22T21:06:17.910Z,95522.91
2023-01-22T21:08:51.881Z,95526.16
2023-01-22T21:11:20.687Z,95530.94
2023-01-22T21:13:49.419Z,95536.25
2023-01-22T21:16:19.008Z,95539.41
2023-01-22T21:18:46.604Z,95542.59
2023-01-22T21:21:18.311Z,95543.09
2023-01-22T21:23:47.734Z,95548.41
2023-01-22T21:26:16.281Z,95547.84
2023-01-22T21:28:43.136Z,95534.69
2023-01-22T21:31:13.129Z,95540.50
2023-01-22T21:33:41.131Z,95541.97
2023-01-22T21:36:09.421Z,95538.94
2023-01-22T21:38:37.165Z,95533.88
2023-01-22T21:41:12.657Z,95541.50
2023-01-22T21:44:03.315Z,95534.13
2023-01-22T21:46:33.892Z,95533.03
2023-01-22T21:49:02.412Z,95526.16
2023-01-22T21:51:30.974Z,95536.69
2023-01-22T21:53:58.648Z,95535.66
2023-01-22T21:56:26.639Z,95542.47
2023-01-22T21:58:53.495Z,95541.69
2023-01-22T22:01:21.979Z,95537.63
2023-01-22T22:03:49.122Z,95548.22
2023-01-22T22:06:16.009Z,95544.03
2023-01-22T22:08:44.412Z,95535.53
2023-01-22T22:11:13.473Z,95520.69
2023-01-22T22:13:41.117Z,95530.69
2023-01-22T22:16:10.049Z,95528.69
2023-01-22T22:18:37.296Z,95534.00
2023-01-22T22:21:06.819Z,95526.06
2023-01-22T22:23:35.322Z,95529.22
2023-01-22T22:26:05.163Z,95532.09
2023-01-22T22:28:34.826Z,95538.78
2023-01-22T22:31:03.792Z,95543.03
2023-01-22T22:33:30.739Z,95534.28
2023-01-22T22:35:59.923Z,95534.53
2023-01-22T22:38:26.597Z,95533.19
2023-01-22T22:41:05.668Z,95531.91
2023-01-22T22:43:38.002Z,95520.25
2023-01-22T22:46:12.729Z,95521.63
2023-01-22T22:48:39.859Z,95526.63
2023-01-22T22:51:15.588Z,95518.44
2023-01-22T22:53:42.523Z,95520.84
2023-01-22T22:56:10.703Z,95521.44
2023-01-22T22:58:37.911Z,95520.38
2023-01-22T23:01:19.321Z,95520.00
2023-01-22T23:03:46.496Z,95518.09
2023-01-22T23:06:19.232Z,95520.69
2023-01-22T23:08:55.649Z,95519.22
2023-01-22T23:11:28.273Z,95519.75
2023-01-22T23:14:01.206Z,95525.28
2023-01-22T23:16:31.786Z,95525.59
2023-01-22T23:19:00.692Z,95523.75
2023-01-22T23:21:28.602Z,95520.38
2023-01-22T23:23:55.848Z,95525.53
2023-01-22T23:26:28.243Z,95523.88
2023-01-22T23:28:57.946Z,95535.06
2023-01-22T23:31:26.069Z,95533.44
2023-01-22T23:33:54.982Z,95532.25
2023-01-22T23:36:22.637Z,95529.63
2023-01-22T23:38:49.852Z,95526.56
2023-01-22T23:41:18.225Z,95537.16
2023-01-22T23:43:45.859Z,95540.28
2023-01-22T23:46:27.194Z,95532.50
2023-01-22T23:48:55.887Z,95533.31
2023-01-22T23:51:22.910Z,95529.75
2023-01-22T23:53:51.946Z,95530.16
2023-01-22T23:56:21.460Z,95538.06
2023-01-22T23:58:48.343Z,95528.09
